createdAt,value
2023-05-17T00:01:46.115Z,4.35
2023-05-17T00:04:13.300Z,4.10
2023-05-17T00:06:41.037Z,3.83
2023-05-17T00:09:08.087Z,4.22
2023-05-17T00:11:35.367Z,4.47
2023-05-17T00:14:02.458Z,4.25
2023-05-17T00:16:29.400Z,3.80
2023-05-17T00:18:56.395Z,3.60
2023-05-17T00:21:23.296Z,3.45
2023-05-17T00:23:50.272Z,4.18
2023-05-17T00:26:17.073Z,3.75
2023-05-17T00:28:44.715Z,3.90
2023-05-17T00:31:11.616Z,4.50
2023-05-17T00:33:38.612Z,3.88
2023-05-17T00:36:05.781Z,4.32
2023-05-17T00:38:32.780Z,5.07
2023-05-17T00:40:59.748Z,4.63
2023-05-17T00:43:27.070Z,5.22
2023-05-17T00:45:53.948Z,5.22
2023-05-17T00:48:26.147Z,5.70
2023-05-17T00:50:54.874Z,5.85
2023-05-17T00:53:22.225Z,5.85
2023-05-17T00:55:49.433Z,5.78
2023-05-17T00:58:16.862Z,6.20
2023-05-17T01:00:44.743Z,5.90
2023-05-17T01:03:12.383Z,5.40
2023-05-17T01:05:39.427Z,5.68
2023-05-17T01:08:06.257Z,5.43
2023-05-17T01:10:56.885Z,5.32
2023-05-17T01:13:53.955Z,4.80
2023-05-17T01:16:44.385Z,4.63
2023-05-17T01:19:14.356Z,4.97
2023-05-17T01:22:08.365Z,4.93
2023-05-17T01:24:44.343Z,4.38
2023-05-17T01:27:12.762Z,4.47
2023-05-17T01:29:41.590Z,4.57
2023-05-17T01:32:10.317Z,4.40
2023-05-17T01:34:37.342Z,3.65
2023-05-17T01:37:04.448Z,4.25
2023-05-17T01:39:31.396Z,4.30
2023-05-17T01:42:13.767Z,4.28
2023-05-17T01:45:11.829Z,4.13
2023-05-17T01:48:06.590Z,4.47
2023-05-17T01:50:36.200Z,4.80
2023-05-17T01:53:08.239Z,3.90
2023-05-17T01:56:03.818Z,3.88
2023-05-17T01:58:33.345Z,3.90
2023-05-17T02:01:01.323Z,3.58
2023-05-17T02:03:29.104Z,3.90
2023-05-17T02:05:56.088Z,3.92
2023-05-17T02:08:23.290Z,3.92
2023-05-17T02:10:51.431Z,3.78
2023-05-17T02:13:18.406Z,4.13
2023-05-17T02:15:45.435Z,3.88
2023-05-17T02:18:13.001Z,4.15
2023-05-17T02:23:30.272Z,3.75
2023-05-17T02:25:57.202Z,4.45
2023-05-17T02:28:24.082Z,3.70
2023-05-17T02:30:51.030Z,4.35
2023-05-17T02:33:18.134Z,4.32
2023-05-17T02:35:45.132Z,4.18
2023-05-17T02:38:12.005Z,3.88
2023-05-17T02:40:42.300Z,3.90
2023-05-17T02:43:09.215Z,3.85
2023-05-17T02:45:36.894Z,3.92
2023-05-17T02:48:03.897Z,4.03
2023-05-17T02:50:30.902Z,3.47
2023-05-17T02:52:58.721Z,3.85
2023-05-17T02:55:25.876Z,4.20
2023-05-17T02:57:53.048Z,4.18
2023-05-17T03:00:21.503Z,4.18
2023-05-17T03:02:48.524Z,4.20
2023-05-17T03:05:15.741Z,3.80
2023-05-17T03:07:48.073Z,4.00
2023-05-17T03:10:14.959Z,4.63
2023-05-17T03:12:45.003Z,4.78
2023-05-17T03:15:13.651Z,4.50
2023-05-17T03:17:40.815Z,4.38
2023-05-17T03:20:09.549Z,4.65
2023-05-17T03:22:36.593Z,5.03
2023-05-17T03:25:05.207Z,4.93
2023-05-17T03:27:37.083Z,5.03
2023-05-17T03:30:05.843Z,5.00
2023-05-17T03:32:34.706Z,5.93
2023-05-17T03:35:01.966Z,5.57
2023-05-17T03:37:29.391Z,5.65
2023-05-17T03:39:56.420Z,5.82
2023-05-17T03:42:23.698Z,5.88
2023-05-17T03:44:51.890Z,5.85
2023-05-17T03:47:23.740Z,5.97
2023-05-17T03:49:51.495Z,5.75
2023-05-17T03:52:18.668Z,5.30
2023-05-17T03:54:48.075Z,5.60
2023-05-17T03:57:16.392Z,5.38
2023-05-17T03:59:43.314Z,6.18
2023-05-17T04:02:10.681Z,6.25
2023-05-17T04:04:38.313Z,6.10
2023-05-17T04:07:05.419Z,5.63
2023-05-17T04:09:35.030Z,5.25
2023-05-17T04:12:02.022Z,5.45
2023-05-17T04:14:29.740Z,5.32
2023-05-17T04:16:59.528Z,4.77
2023-05-17T04:19:26.570Z,5.38
2023-05-17T04:21:54.862Z,5.57
2023-05-17T04:24:24.114Z,5.95
2023-05-17T04:26:52.598Z,5.53
2023-05-17T04:29:24.249Z,5.43
2023-05-17T04:31:51.500Z,5.32
2023-05-17T04:34:18.548Z,4.18
2023-05-17T04:36:45.884Z,4.25
2023-05-17T04:39:12.745Z,4.30
2023-05-17T04:41:40.628Z,4.68
2023-05-17T04:44:11.320Z,4.82
2023-05-17T04:46:38.318Z,4.10
2023-05-17T04:49:05.251Z,3.55
2023-05-17T04:51:32.286Z,3.60
2023-05-17T04:54:01.908Z,4.00
2023-05-17T04:56:31.263Z,3.28
2023-05-17T04:58:58.601Z,3.88
2023-05-17T05:01:25.609Z,4.00
2023-05-17T05:03:52.710Z,3.28
2023-05-17T05:06:19.914Z,2.60
2023-05-17T05:08:47.050Z,2.97
2023-05-17T05:11:15.269Z,3.10
2023-05-17T05:13:42.591Z,2.80
2023-05-17T05:16:09.549Z,2.85
2023-05-17T05:18:37.622Z,2.83
2023-05-17T05:21:04.815Z,2.50
2023-05-17T05:23:32.383Z,3.42
2023-05-17T05:25:59.360Z,2.72
2023-05-17T05:28:27.401Z,2.45
2023-05-17T05:30:59.497Z,2.55
2023-05-17T05:33:31.979Z,2.80
2023-05-17T05:35:59.061Z,3.03
2023-05-17T05:38:26.870Z,2.95
2023-05-17T05:40:54.085Z,2.65
2023-05-17T05:43:21.021Z,2.33
2023-05-17T05:45:48.165Z,2.78
2023-05-17T05:48:15.942Z,2.40
2023-05-17T05:50:44.571Z,2.35
2023-05-17T05:53:19.001Z,2.38
2023-05-17T05:55:55.552Z,2.20
2023-05-17T05:58:22.495Z,2.33
2023-05-17T06:00:50.771Z,2.58
2023-05-17T06:03:17.713Z,2.20
2023-05-17T06:05:44.713Z,2.30
2023-05-17T06:08:11.609Z,1.90
2023-05-17T06:10:38.466Z,2.08
2023-05-17T06:13:05.346Z,1.55
2023-05-17T06:15:32.355Z,1.83
2023-05-17T06:17:59.671Z,2.33
2023-05-17T06:20:26.797Z,1.70
2023-05-17T06:22:53.852Z,1.60
2023-05-17T06:25:20.887Z,2.20
2023-05-17T06:27:47.736Z,1.70
2023-05-17T06:30:15.089Z,1.70
2023-05-17T06:32:45.092Z,1.67
2023-05-17T06:35:14.727Z,1.70
2023-05-17T06:37:42.864Z,1.85
2023-05-17T06:40:16.646Z,1.70
2023-05-17T06:42:44.526Z,1.75
2023-05-17T06:45:12.512Z,1.60
2023-05-17T06:47:39.553Z,2.00
2023-05-17T06:50:08.680Z,1.80
2023-05-17T06:52:36.112Z,1.88
2023-05-17T06:55:03.134Z,1.60
2023-05-17T06:57:30.227Z,1.83
2023-05-17T06:59:57.259Z,2.42
2023-05-17T07:02:24.525Z,14.95
2023-05-17T07:04:51.492Z,6.03
2023-05-17T07:07:18.533Z,2.50
2023-05-17T07:09:45.569Z,2.00
2023-05-17T07:12:12.567Z,1.75
2023-05-17T07:14:39.620Z,1.45
2023-05-17T07:17:06.851Z,1.67
2023-05-17T07:19:33.960Z,1.60
2023-05-17T07:22:01.090Z,1.88
2023-05-17T07:24:28.324Z,1.98
2023-05-17T07:26:55.297Z,2.17
2023-05-17T07:29:22.275Z,1.88
2023-05-17T07:31:49.145Z,1.55
2023-05-17T07:34:16.161Z,1.88
2023-05-17T07:36:43.131Z,1.83
2023-05-17T07:39:10.146Z,1.90
2023-05-17T07:41:37.316Z,1.90
2023-05-17T07:44:04.283Z,1.67
2023-05-17T07:46:31.207Z,1.90
2023-05-17T07:48:58.947Z,2.13
2023-05-17T07:51:26.396Z,1.83
2023-05-17T07:53:53.486Z,1.70
2023-05-17T07:56:20.543Z,1.80
2023-05-17T07:58:47.455Z,1.58
2023-05-17T08:01:14.461Z,1.60
2023-05-17T08:03:48.178Z,1.42
2023-05-17T08:06:18.453Z,1.98
2023-05-17T08:08:45.759Z,2.00
2023-05-17T08:11:13.687Z,1.70
2023-05-17T08:13:40.630Z,1.80
2023-05-17T08:16:14.053Z,1.63
2023-05-17T08:18:45.000Z,1.88
2023-05-17T08:21:12.076Z,1.48
2023-05-17T08:23:39.419Z,1.50
2023-05-17T08:26:06.815Z,1.70
2023-05-17T08:28:33.871Z,1.60
2023-05-17T08:31:01.174Z,1.50
2023-05-17T08:33:28.557Z,1.40
2023-05-17T08:35:57.724Z,1.63
2023-05-17T08:38:24.639Z,1.60
2023-05-17T08:40:56.216Z,1.40
2023-05-17T08:43:27.371Z,1.42
2023-05-17T08:45:57.772Z,1.63
2023-05-17T08:48:31.275Z,1.50
2023-05-17T08:50:59.981Z,1.40
2023-05-17T08:53:27.132Z,1.02
2023-05-17T08:56:00.716Z,1.30
2023-05-17T08:58:36.019Z,1.30
2023-05-17T09:01:09.829Z,1.23
2023-05-17T09:03:41.102Z,1.20
2023-05-17T09:06:10.091Z,1.30
2023-05-17T09:08:38.114Z,0.98
2023-05-17T09:11:05.332Z,1.30
2023-05-17T09:13:32.184Z,1.00
2023-05-17T09:15:59.131Z,1.52
2023-05-17T09:18:33.250Z,1.40
2023-05-17T09:21:07.168Z,1.60
2023-05-17T09:23:34.212Z,2.08
2023-05-17T09:26:06.331Z,2.00
2023-05-17T09:28:39.516Z,2.00
2023-05-17T09:31:12.578Z,1.88
2023-05-17T09:33:48.361Z,1.75
2023-05-17T09:36:23.311Z,1.45
2023-05-17T09:38:55.269Z,1.58
2023-05-17T09:41:26.714Z,1.27
2023-05-17T09:43:53.752Z,1.10
2023-05-17T09:46:20.965Z,1.67
2023-05-17T09:48:53.988Z,1.15
2023-05-17T09:51:34.619Z,1.55
2023-05-17T09:54:02.106Z,1.30
2023-05-17T09:56:32.145Z,1.45
2023-05-17T09:59:03.352Z,1.17
2023-05-17T10:01:34.294Z,1.40
2023-05-17T10:04:05.225Z,1.30
2023-05-17T10:06:45.412Z,1.50
2023-05-17T10:09:18.747Z,1.50
2023-05-17T10:11:49.486Z,1.38
2023-05-17T10:14:27.460Z,1.17
2023-05-17T10:16:55.163Z,0.90
2023-05-17T10:19:23.528Z,1.00
2023-05-17T10:21:53.073Z,1.20
2023-05-17T10:24:21.839Z,1.40
2023-05-17T10:26:52.385Z,1.58
2023-05-17T10:29:22.438Z,1.30
2023-05-17T10:31:52.795Z,1.10
2023-05-17T10:34:21.086Z,1.40
2023-05-17T10:36:50.219Z,1.10
2023-05-17T10:39:17.944Z,1.05
2023-05-17T10:41:48.012Z,0.93
2023-05-17T10:44:18.212Z,1.30
2023-05-17T10:46:56.156Z,1.30
2023-05-17T10:49:29.555Z,1.40
2023-05-17T10:52:11.552Z,1.20
2023-05-17T10:54:42.798Z,1.38
2023-05-17T10:57:38.969Z,1.50
2023-05-17T11:00:19.352Z,1.50
2023-05-17T11:02:48.674Z,1.85
2023-05-17T11:08:11.788Z,1.50
2023-05-17T11:10:38.981Z,1.85
2023-05-17T11:13:25.419Z,2.03
2023-05-17T11:16:07.816Z,2.25
2023-05-17T11:18:55.337Z,2.17
2023-05-17T11:21:23.060Z,1.83
2023-05-17T11:23:56.675Z,1.85
2023-05-17T11:26:36.869Z,1.38
2023-05-17T11:29:08.959Z,1.60
2023-05-17T11:31:37.155Z,1.40
2023-05-17T11:34:05.314Z,1.50
2023-05-17T11:36:48.390Z,1.40
2023-05-17T11:39:21.042Z,1.30
2023-05-17T11:41:50.769Z,1.60
2023-05-17T11:44:26.964Z,1.42
2023-05-17T11:47:15.784Z,1.73
2023-05-17T11:49:42.835Z,1.67
2023-05-17T11:52:09.850Z,1.40
2023-05-17T11:54:39.001Z,1.50
2023-05-17T11:57:07.130Z,1.08
2023-05-17T11:59:40.864Z,1.35
2023-05-17T12:02:08.589Z,1.52
2023-05-17T12:04:37.824Z,1.85
2023-05-17T12:07:05.904Z,1.50
2023-05-17T12:09:33.078Z,1.48
2023-05-17T12:12:04.755Z,1.42
2023-05-17T12:14:32.087Z,1.00
2023-05-17T12:17:02.628Z,1.30
2023-05-17T12:19:30.501Z,1.20
2023-05-17T12:22:08.764Z,1.42
2023-05-17T12:24:44.810Z,1.20
2023-05-17T12:27:11.875Z,0.90
2023-05-17T12:29:39.992Z,1.00
2023-05-17T12:32:10.072Z,0.80
2023-05-17T12:34:37.428Z,0.70
2023-05-17T12:37:10.126Z,0.60
2023-05-17T12:39:37.283Z,0.60
2023-05-17T12:42:04.473Z,1.35
2023-05-17T12:44:32.583Z,1.30
2023-05-17T12:47:02.737Z,1.05
2023-05-17T12:49:29.732Z,0.70
2023-05-17T12:51:56.691Z,1.00
2023-05-17T12:54:28.854Z,0.98
2023-05-17T12:56:56.675Z,0.88
2023-05-17T12:59:28.919Z,0.93
2023-05-17T13:01:58.164Z,0.90
2023-05-17T13:04:34.052Z,0.85
2023-05-17T13:07:03.705Z,1.25
2023-05-17T13:09:32.738Z,0.95
2023-05-17T13:12:04.868Z,0.93
2023-05-17T13:14:47.228Z,0.80
2023-05-17T13:17:39.382Z,1.40
2023-05-17T13:20:10.486Z,1.30
2023-05-17T13:22:48.161Z,1.20
2023-05-17T13:25:15.998Z,1.00
2023-05-17T13:27:46.925Z,1.10
2023-05-17T13:30:14.871Z,1.10
2023-05-17T13:32:42.010Z,1.15
2023-05-17T13:35:09.370Z,1.05
2023-05-17T13:37:36.535Z,1.00
2023-05-17T13:40:04.652Z,1.20
2023-05-17T13:42:32.139Z,1.25
2023-05-17T13:45:01.493Z,1.00
2023-05-17T13:47:32.149Z,1.10
2023-05-17T13:50:03.921Z,1.25
2023-05-17T13:52:33.569Z,1.00
2023-05-17T13:55:00.689Z,1.20
2023-05-17T13:57:28.098Z,1.23
2023-05-17T13:59:55.060Z,0.98
2023-05-17T14:02:21.937Z,1.00
2023-05-17T14:04:49.172Z,1.20
2023-05-17T14:07:16.196Z,1.00
2023-05-17T14:09:43.606Z,0.93
2023-05-17T14:12:12.051Z,0.90
2023-05-17T14:14:39.010Z,1.00
2023-05-17T14:17:06.184Z,1.13
2023-05-17T14:19:33.369Z,1.17
2023-05-17T14:22:00.847Z,1.00
2023-05-17T14:24:27.842Z,1.00
2023-05-17T14:26:54.748Z,0.75
2023-05-17T14:29:22.930Z,1.00
2023-05-17T14:31:49.869Z,1.10
2023-05-17T14:34:16.972Z,0.88
2023-05-17T14:36:44.076Z,1.15
2023-05-17T14:39:11.100Z,1.00
2023-05-17T14:41:44.112Z,1.10
2023-05-17T14:44:13.266Z,1.40
2023-05-17T14:46:46.093Z,1.30
2023-05-17T14:49:19.290Z,1.40
2023-05-17T14:51:51.068Z,1.48
2023-05-17T14:54:24.115Z,1.00
2023-05-17T14:56:52.295Z,1.05
2023-05-17T14:59:22.204Z,1.27
2023-05-17T15:01:49.898Z,1.23
2023-05-17T15:04:20.600Z,1.23
2023-05-17T15:07:03.460Z,1.23
2023-05-17T15:09:32.995Z,1.00
2023-05-17T15:12:02.917Z,1.05
2023-05-17T15:14:33.366Z,1.38
2023-05-17T15:17:02.623Z,1.02
2023-05-17T15:19:31.808Z,1.02
2023-05-17T15:22:01.096Z,1.10
2023-05-17T15:24:31.356Z,1.20
2023-05-17T15:26:59.267Z,1.27
2023-05-17T15:29:26.694Z,1.33
2023-05-17T15:31:54.081Z,1.40
2023-05-17T15:34:26.679Z,1.40
2023-05-17T15:36:56.103Z,1.95
2023-05-17T15:39:23.261Z,1.88
2023-05-17T15:41:50.672Z,1.00
2023-05-17T15:44:18.791Z,1.13
2023-05-17T15:46:46.348Z,1.00
2023-05-17T15:49:13.439Z,1.00
2023-05-17T15:51:40.440Z,1.13
2023-05-17T15:54:07.635Z,1.30
2023-05-17T15:56:34.794Z,1.08
2023-05-17T15:59:02.874Z,0.90
2023-05-17T16:01:34.216Z,1.20
2023-05-17T16:04:02.664Z,1.15
2023-05-17T16:06:34.915Z,1.38
2023-05-17T16:09:03.239Z,1.30
2023-05-17T16:11:30.388Z,1.10
2023-05-17T16:13:58.098Z,1.20
2023-05-17T16:16:25.309Z,1.10
2023-05-17T16:18:52.315Z,1.30
2023-05-17T16:21:20.260Z,1.05
2023-05-17T16:23:47.433Z,1.50
2023-05-17T16:26:14.637Z,1.00
2023-05-17T16:28:41.736Z,0.95
2023-05-17T16:31:09.088Z,0.82
2023-05-17T16:33:36.656Z,1.10
2023-05-17T16:36:05.121Z,1.17
2023-05-17T16:38:32.057Z,1.27
2023-05-17T16:41:03.295Z,2.20
2023-05-17T16:43:31.221Z,1.50
2023-05-17T16:45:58.363Z,1.60
2023-05-17T16:48:25.592Z,1.15
2023-05-17T16:50:52.534Z,1.20
2023-05-17T16:53:24.008Z,1.17
2023-05-17T16:55:51.071Z,1.40
2023-05-17T16:58:18.056Z,1.48
2023-05-17T17:00:45.102Z,1.50
2023-05-17T17:03:12.150Z,1.13
2023-05-17T17:05:39.205Z,1.10
2023-05-17T17:08:06.365Z,1.20
2023-05-17T17:10:34.732Z,1.27
2023-05-17T17:13:01.996Z,1.20
2023-05-17T17:15:29.574Z,1.02
2023-05-17T17:17:56.566Z,1.10
2023-05-17T17:20:23.682Z,1.30
2023-05-17T17:22:51.223Z,1.05
2023-05-17T17:25:19.290Z,1.35
2023-05-17T17:27:47.135Z,1.20
2023-05-17T17:30:14.395Z,2.00
2023-05-17T17:32:41.688Z,1.40
2023-05-17T17:35:09.510Z,1.17
2023-05-17T17:37:36.820Z,0.93
2023-05-17T17:40:04.115Z,1.10
2023-05-17T17:42:32.359Z,1.00
2023-05-17T17:44:59.249Z,1.40
2023-05-17T17:47:26.350Z,1.88
2023-05-17T17:49:53.394Z,1.95
2023-05-17T17:52:20.586Z,1.20
2023-05-17T17:57:21.976Z,1.50
2023-05-17T17:59:53.950Z,2.83
2023-05-17T18:02:29.462Z,3.22
2023-05-17T18:04:59.434Z,1.90
2023-05-17T18:07:26.784Z,1.60
2023-05-17T18:09:53.916Z,1.98
2023-05-17T18:12:21.001Z,1.65
2023-05-17T18:14:48.004Z,1.80
2023-05-17T18:17:19.588Z,2.17
2023-05-17T18:19:48.573Z,1.90
2023-05-17T18:22:19.165Z,1.75
2023-05-17T18:24:46.337Z,2.33
2023-05-17T18:27:14.371Z,1.65
2023-05-17T18:29:41.962Z,1.65
2023-05-17T18:32:09.723Z,1.95
2023-05-17T18:34:37.089Z,1.95
2023-05-17T18:37:04.638Z,2.10
2023-05-17T18:39:31.691Z,2.50
2023-05-17T18:41:58.664Z,3.17
2023-05-17T18:44:25.854Z,2.30
2023-05-17T18:46:53.959Z,2.67
2023-05-17T18:49:21.553Z,2.15
2023-05-17T18:51:48.616Z,2.28
2023-05-17T18:54:16.384Z,3.10
2023-05-17T18:56:44.037Z,3.47
2023-05-17T18:59:13.627Z,3.38
2023-05-17T19:01:41.195Z,3.78
2023-05-17T19:04:08.640Z,3.58
2023-05-17T19:06:36.169Z,3.47
2023-05-17T19:09:03.492Z,3.63
2023-05-17T19:11:30.813Z,4.00
2023-05-17T19:13:58.542Z,3.25
2023-05-17T19:16:25.842Z,3.00
2023-05-17T19:18:53.343Z,2.50
2023-05-17T19:21:20.988Z,2.50
2023-05-17T19:23:47.954Z,2.53
2023-05-17T19:26:15.431Z,2.50
2023-05-17T19:28:42.464Z,2.63
2023-05-17T19:31:09.809Z,2.75
2023-05-17T19:33:37.797Z,2.55
2023-05-17T19:36:04.970Z,1.75
2023-05-17T19:38:33.307Z,1.75
2023-05-17T19:41:01.503Z,1.80
2023-05-17T19:43:28.845Z,2.03
2023-05-17T19:45:56.116Z,1.90
2023-05-17T19:48:24.397Z,2.22
2023-05-17T19:50:56.635Z,1.88
2023-05-17T19:53:24.213Z,2.00
2023-05-17T19:55:51.206Z,1.80
2023-05-17T19:58:18.257Z,1.80
2023-05-17T20:00:45.386Z,2.25
2023-05-17T20:03:12.516Z,1.85
2023-05-17T20:05:39.584Z,2.05
2023-05-17T20:08:08.038Z,2.00
2023-05-17T20:10:35.466Z,2.10
2023-05-17T20:13:02.704Z,2.20
2023-05-17T20:15:29.650Z,1.85
2023-05-17T20:17:56.558Z,1.77
2023-05-17T20:20:23.928Z,2.35
2023-05-17T20:22:51.021Z,2.72
2023-05-17T20:25:18.076Z,2.63
2023-05-17T20:27:45.069Z,2.20
2023-05-17T20:30:12.482Z,2.17
2023-05-17T20:32:39.404Z,2.20
2023-05-17T20:35:06.954Z,2.58
2023-05-17T20:37:34.182Z,2.33
2023-05-17T20:40:01.189Z,2.30
2023-05-17T20:42:29.071Z,2.30
2023-05-17T20:44:57.943Z,2.70
2023-05-17T20:47:25.381Z,2.90
2023-05-17T20:49:52.450Z,2.83
2023-05-17T20:52:31.342Z,3.47
2023-05-17T20:55:05.561Z,3.50
2023-05-17T20:57:32.406Z,2.60
2023-05-17T20:59:59.417Z,2.83
2023-05-17T21:02:26.699Z,3.55
2023-05-17T21:04:54.714Z,3.65
2023-05-17T21:07:26.491Z,3.50
2023-05-17T21:09:53.491Z,2.88
2023-05-17T21:12:22.394Z,2.53
2023-05-17T21:15:04.274Z,2.58
2023-05-17T21:17:37.722Z,2.53
2023-05-17T21:20:05.120Z,2.65
2023-05-17T21:22:32.069Z,2.42
2023-05-17T21:24:59.145Z,2.75
2023-05-17T21:27:26.169Z,2.70
2023-05-17T21:29:53.107Z,2.70
2023-05-17T21:32:20.148Z,2.58
2023-05-17T21:34:47.169Z,2.67
2023-05-17T21:37:14.601Z,2.60
2023-05-17T21:39:42.040Z,2.88
2023-05-17T21:42:09.175Z,2.40
2023-05-17T21:44:36.159Z,2.40
2023-05-17T21:47:03.252Z,2.67
2023-05-17T21:49:30.842Z,2.38
2023-05-17T21:51:58.607Z,2.50
2023-05-17T21:54:26.279Z,2.53
2023-05-17T21:56:53.488Z,2.53
2023-05-17T21:59:20.549Z,2.30
2023-05-17T22:01:47.945Z,2.20
2023-05-17T22:04:14.984Z,3.05
2023-05-17T22:06:42.069Z,2.10
2023-05-17T22:09:09.605Z,2.10
2023-05-17T22:11:38.757Z,2.45
2023-05-17T22:14:07.382Z,2.43
2023-05-17T22:16:36.038Z,2.13
2023-05-17T22:19:05.729Z,2.15
2023-05-17T22:21:33.162Z,2.22
2023-05-17T22:24:00.278Z,2.30
2023-05-17T22:26:27.882Z,2.30
2023-05-17T22:28:55.866Z,2.13
2023-05-17T22:31:22.976Z,2.33
2023-05-17T22:33:52.266Z,2.28
2023-05-17T22:36:22.144Z,2.15
2023-05-17T22:38:49.412Z,2.35
2023-05-17T22:41:16.823Z,2.10
2023-05-17T22:43:44.081Z,2.40
2023-05-17T22:46:11.077Z,2.20
2023-05-17T22:48:39.355Z,2.75
2023-05-17T22:51:07.074Z,2.28
2023-05-17T22:53:35.218Z,2.63
2023-05-17T22:56:03.117Z,1.77
2023-05-17T22:58:30.666Z,2.40
2023-05-17T23:00:58.148Z,2.35
2023-05-17T23:03:25.973Z,2.47
2023-05-17T23:06:02.496Z,2.50
2023-05-17T23:08:30.753Z,2.30
2023-05-17T23:10:58.470Z,2.10
2023-05-17T23:13:26.511Z,2.42
2023-05-17T23:15:54.221Z,2.00
2023-05-17T23:18:21.830Z,2.47
2023-05-17T23:20:49.430Z,2.38
2023-05-17T23:23:17.507Z,2.20
2023-05-17T23:25:48.886Z,2.20
2023-05-17T23:28:16.590Z,2.42
2023-05-17T23:30:44.879Z,2.50
2023-05-17T23:33:12.126Z,2.10
2023-05-17T23:35:39.700Z,2.17
2023-05-17T23:38:07.453Z,2.20
2023-05-17T23:40:36.057Z,1.90
2023-05-17T23:43:09.069Z,2.25
2023-05-17T23:45:36.233Z,2.10
2023-05-17T23:48:03.559Z,1.88
2023-05-17T23:50:30.823Z,2.00
2023-05-17T23:52:58.584Z,2.05
2023-05-17T23:55:25.905Z,1.80
2023-05-17T23:57:54.265Z,1.45
